Terminal Aerodrome Forecast
Issued by NWS Tampa Bay Area, FL

Home | Current Version | Previous Version | Text Only | Print | Product List | Glossary On
Versions: 1 2 3 4 5 6 7 8 9 10 11 12
104
FTUS42 KTBW 021737 RRA
TAFSRQ
TAF
KSRQ 021737Z 0218/0318 22012G17KT P6SM SCT040 BKN060
     FM022300 25008KT P6SM FEW040 SCT250
     FM030300 13005KT P6SM FEW040 SCT250
     FM031000 16005KT P6SM SCT010 BKN020
     FM031400 21008KT P6SM SCT025 BKN070=

USA.gov is the U.S. government's official web portal to all federal, state and local government web resources and services.